CheckWX is a tool to help pilots better visualize weather data.  It is not intended as a substitute for an official pre-flight weather briefing.

04:54:14 UTC

KDYL METAR
Doylestown Airport
Doylestown, Pennsylvania, USA
Current

60 mins ago

KDYL 240354Z AUTO 00000KT 10SM OVC090 18/17 A2991 RMK AO2 SLP123 T01830167
Observed
Jul-24 @ 03:54 UTC
Visibility
10 SM
Flight Rules
VFR
Cloud Levels
  • Overcast at 9,000' AGL
Temperature
18°C / 64°F
Dewpoint
17°C / 63°F
Humidity
94%
Altimeter
29.91" Hg
Pressure
1012.92 hPa
Previous

2 hours ago

KDYL 240254Z AUTO 00000KT 10SM OVC075 19/17 A2989 RMK AO2 RAE21 SLP117 P0001 60001 T01890172 58001
Observed
Jul-24 @ 02:54 UTC
Visibility
10 SM
Flight Rules
VFR
Cloud Levels
  • Overcast at 7,500' AGL
Temperature
19°C / 66°F
Dewpoint
17°C / 63°F
Humidity
88%
Altimeter
29.89" Hg
Pressure
1012.22 hPa
Current Rain
0.01"
Previous

3 hours ago

KDYL 240154Z AUTO 00000KT 10SM -RA BKN060 OVC075 19/17 A2990 RMK AO2 RAB54 SLP121 P0000 T01890172
Observed
Jul-24 @ 01:54 UTC
Visibility
10 SM
Flight Rules
VFR
Conditions
Light Rain
Cloud Levels
  • Broken at 6,000' AGL
  • Overcast at 7,500' AGL
Temperature
19°C / 66°F
Dewpoint
17°C / 63°F
Humidity
88%
Altimeter
29.9" Hg
Pressure
1012.52 hPa
Current Rain
0.01"